createdAt,value
2023-02-25T00:01:07.805Z,60.5
2023-02-25T00:02:24.910Z,50.9
2023-02-25T00:03:41.036Z,48.9
2023-02-25T00:04:57.157Z,54.3
2023-02-25T00:06:14.262Z,49.9
2023-02-25T00:07:31.367Z,52.5
2023-02-25T00:08:48.472Z,62.3
2023-02-25T00:10:05.577Z,62
2023-02-25T00:11:22.682Z,61.7
2023-02-25T00:12:39.787Z,53.9
2023-02-25T00:13:56.892Z,49.7
2023-02-25T00:15:13.997Z,50.2
2023-02-25T00:16:31.102Z,48
2023-02-25T00:17:48.207Z,47.6
2023-02-25T00:19:05.312Z,60.7
2023-02-25T00:20:22.417Z,61.7
2023-02-25T00:21:39.522Z,63.9
2023-02-25T00:22:55.643Z,49.9
2023-02-25T00:24:12.748Z,52.6
2023-02-25T00:25:29.853Z,64.4
2023-02-25T00:26:46.958Z,49.4
2023-02-25T00:28:04.063Z,56.2
2023-02-25T00:29:21.168Z,51.7
2023-02-25T00:30:37.294Z,52
2023-02-25T00:31:53.415Z,48.8
2023-02-25T00:33:10.520Z,51.5
2023-02-25T00:34:26.646Z,48.9
2023-02-25T00:35:42.767Z,64.1
2023-02-25T00:36:59.872Z,69.6
2023-02-25T00:38:16.977Z,51
2023-02-25T00:39:34.082Z,57.6
2023-02-25T00:40:51.187Z,48.6
2023-02-25T00:42:08.292Z,50.4
2023-02-25T00:43:25.397Z,48.8
2023-02-25T00:44:42.502Z,49.1
2023-02-25T00:45:59.607Z,59.9
2023-02-25T00:47:16.711Z,48.9
2023-02-25T00:48:33.817Z,55.5
2023-02-25T00:49:50.922Z,54.1
2023-02-25T00:51:08.027Z,55.1
2023-02-25T00:52:24.148Z,54.1
2023-02-25T00:53:41.253Z,54.1
2023-02-25T00:54:58.357Z,62.1
2023-02-25T00:56:15.462Z,63.1
2023-02-25T00:57:32.567Z,47.3
2023-02-25T00:58:49.672Z,49.1
2023-02-25T01:00:06.778Z,48.1
2023-02-25T01:01:22.904Z,47.8
2023-02-25T01:02:39.025Z,48.6
2023-02-25T01:03:56.130Z,55.9
2023-02-25T01:05:13.234Z,50.5
2023-02-25T01:06:29.361Z,57.2
2023-02-25T01:07:45.482Z,48.3
2023-02-25T01:09:02.587Z,61.3
2023-02-25T01:10:19.691Z,52.3
2023-02-25T01:11:36.796Z,54.1
2023-02-25T01:12:53.901Z,53.1
2023-02-25T01:14:11.007Z,46.7
2023-02-25T01:15:28.112Z,47.6
2023-02-25T01:16:45.217Z,49.3
2023-02-25T01:18:02.322Z,47.6
2023-02-25T01:19:19.427Z,48.9
2023-02-25T01:20:36.532Z,48.9
2023-02-25T01:21:53.637Z,59.9
2023-02-25T01:23:10.741Z,49.3
2023-02-25T01:24:26.862Z,48.9
2023-02-25T01:25:43.967Z,49.9
2023-02-25T01:27:01.073Z,49.4
2023-02-25T01:28:18.177Z,48.9
2023-02-25T01:29:35.282Z,49.6
2023-02-25T01:30:52.387Z,56.2
2023-02-25T01:32:09.492Z,61.8
2023-02-25T01:33:25.618Z,48
2023-02-25T01:34:41.739Z,47.8
2023-02-25T01:35:57.866Z,53.4
2023-02-25T01:37:13.987Z,48.9
2023-02-25T01:38:31.092Z,58.1
2023-02-25T01:39:48.197Z,51.8
2023-02-25T01:41:05.302Z,48
2023-02-25T01:42:22.407Z,47.3
2023-02-25T01:43:39.512Z,50.7
2023-02-25T01:44:56.617Z,47.8
2023-02-25T01:46:13.722Z,48.9
2023-02-25T01:47:30.827Z,61.7
2023-02-25T01:48:47.932Z,48.3
2023-02-25T01:50:05.037Z,50.7
2023-02-25T01:51:22.141Z,51.4
2023-02-25T01:52:39.247Z,67.9
2023-02-25T01:53:55.368Z,55.2
2023-02-25T01:55:12.472Z,56.7
2023-02-25T01:56:29.577Z,47.2
2023-02-25T01:57:46.683Z,48
2023-02-25T01:59:03.788Z,47.2
2023-02-25T02:00:20.893Z,58.8
2023-02-25T02:01:37.998Z,47.6
2023-02-25T02:02:54.124Z,48.9
2023-02-25T02:04:10.245Z,50.1
2023-02-25T02:05:27.350Z,48.1
2023-02-25T02:06:43.477Z,47.6
2023-02-25T02:07:59.598Z,49.9
2023-02-25T02:09:16.703Z,48.8
2023-02-25T02:10:33.808Z,48.3
2023-02-25T02:11:50.913Z,49.3
2023-02-25T02:13:08.018Z,47.6
2023-02-25T02:14:25.123Z,47.6
2023-02-25T02:15:42.228Z,48.6
2023-02-25T02:16:59.334Z,48.5
2023-02-25T02:18:16.439Z,60.4
2023-02-25T02:19:33.544Z,58
2023-02-25T02:20:50.649Z,57.6
2023-02-25T02:22:07.754Z,56.3
2023-02-25T02:23:24.859Z,53.4
2023-02-25T02:24:40.980Z,48.5
2023-02-25T02:25:58.085Z,48.5
2023-02-25T02:27:15.190Z,60.1
2023-02-25T02:28:32.295Z,47.6
2023-02-25T02:29:49.400Z,50.4
2023-02-25T02:31:06.505Z,48
2023-02-25T02:32:23.610Z,48.3
2023-02-25T02:33:39.736Z,65.9
2023-02-25T02:34:55.857Z,52.5
2023-02-25T02:36:12.962Z,48
2023-02-25T02:37:29.088Z,52.6
2023-02-25T02:38:45.209Z,56.7
2023-02-25T02:40:02.314Z,47.6
2023-02-25T02:41:19.419Z,56
2023-02-25T02:42:36.524Z,48.5
2023-02-25T02:43:53.629Z,50.1
2023-02-25T02:45:10.734Z,48.1
2023-02-25T02:46:27.840Z,48
2023-02-25T02:47:44.945Z,48.8
2023-02-25T02:49:02.050Z,66.7
2023-02-25T02:50:19.155Z,49.7
2023-02-25T02:51:36.260Z,48.3
2023-02-25T02:52:53.365Z,55.4
2023-02-25T02:54:10.470Z,48.8
2023-02-25T02:55:26.590Z,47.6
2023-02-25T02:56:43.696Z,48.1
2023-02-25T02:58:00.801Z,48.9
2023-02-25T02:59:17.906Z,48.5
2023-02-25T03:00:35.011Z,48.5
2023-02-25T03:01:52.116Z,48.3
2023-02-25T03:03:09.221Z,48.6
2023-02-25T03:04:25.347Z,48.6
2023-02-25T03:05:41.468Z,48.8
2023-02-25T03:06:58.573Z,46.7
2023-02-25T03:08:14.699Z,48.3
2023-02-25T03:09:30.821Z,50.4
2023-02-25T03:10:47.925Z,64.6
2023-02-25T03:12:05.030Z,48.8
2023-02-25T03:13:22.136Z,62.6
2023-02-25T03:14:39.240Z,46.8
2023-02-25T03:15:56.345Z,48.1
2023-02-25T03:17:13.450Z,60.9
2023-02-25T03:18:30.555Z,48
2023-02-25T03:19:47.660Z,49.4
2023-02-25T03:21:04.765Z,49.4
2023-02-25T03:22:21.870Z,48.8
2023-02-25T03:23:38.975Z,53
2023-02-25T03:24:56.080Z,49.9
2023-02-25T03:26:12.201Z,49.3
2023-02-25T03:27:29.306Z,49.4
2023-02-25T03:28:46.411Z,65.7
2023-02-25T03:30:03.516Z,47.5
2023-02-25T03:31:20.621Z,49.4
2023-02-25T03:32:37.726Z,48.8
2023-02-25T03:33:54.831Z,48.1
2023-02-25T03:35:10.957Z,47.2
2023-02-25T03:36:27.078Z,47.3
2023-02-25T03:37:44.184Z,50.9
2023-02-25T03:39:01.289Z,47.6
2023-02-25T03:40:17.415Z,47.6
2023-02-25T03:41:33.536Z,62
2023-02-25T03:42:50.641Z,48
2023-02-25T03:44:07.746Z,58.9
2023-02-25T03:45:24.851Z,52
2023-02-25T03:46:41.956Z,48.5
2023-02-25T03:47:59.061Z,47.8
2023-02-25T03:49:16.167Z,48.3
2023-02-25T03:50:33.272Z,49.1
2023-02-25T03:51:49.393Z,48.3
2023-02-25T03:53:06.498Z,52.3
2023-02-25T03:54:23.603Z,48.8
2023-02-25T03:55:40.709Z,64.6
2023-02-25T03:56:57.814Z,52.8
2023-02-25T03:58:14.919Z,47.6
2023-02-25T03:59:32.022Z,49.3
2023-02-25T04:00:49.127Z,63.3
2023-02-25T04:02:06.233Z,48.6
2023-02-25T04:03:23.338Z,52.6
2023-02-25T04:04:40.443Z,58.8
2023-02-25T04:05:57.548Z,67.1
2023-02-25T04:07:13.675Z,48.6
2023-02-25T04:08:29.796Z,48.9
2023-02-25T04:09:45.923Z,49.3
2023-02-25T04:11:02.044Z,48.9
2023-02-25T04:12:19.149Z,48.8
2023-02-25T04:13:36.255Z,49.4
2023-02-25T04:14:53.360Z,49.1
2023-02-25T04:16:10.465Z,58.8
2023-02-25T04:17:27.572Z,49.4
2023-02-25T04:18:44.678Z,49.4
2023-02-25T04:20:01.783Z,64.6
2023-02-25T04:21:18.888Z,53.4
2023-02-25T04:22:35.993Z,50.5
2023-02-25T04:23:53.099Z,64.9
2023-02-25T04:25:10.204Z,52.2
2023-02-25T04:26:27.309Z,62.8
2023-02-25T04:27:43.431Z,50.2
2023-02-25T04:29:00.536Z,52
2023-02-25T04:30:17.641Z,52.5
2023-02-25T04:31:34.747Z,67.8
2023-02-25T04:32:51.852Z,69.7
2023-02-25T04:34:08.957Z,52
2023-02-25T04:35:26.063Z,52
2023-02-25T04:36:42.189Z,50.4
2023-02-25T04:37:58.311Z,54.1
2023-02-25T04:39:15.416Z,50.9
2023-02-25T04:40:31.542Z,50.4
2023-02-25T04:41:47.664Z,68.3
2023-02-25T04:43:04.769Z,50.4
2023-02-25T04:44:21.875Z,48.9
2023-02-25T04:45:38.980Z,48.6
2023-02-25T04:46:56.085Z,61.2
2023-02-25T04:48:13.191Z,57.2
2023-02-25T04:49:30.296Z,64.9
2023-02-25T04:50:47.401Z,51
2023-02-25T04:52:04.506Z,63.1
2023-02-25T04:53:21.612Z,50.7
2023-02-25T04:54:38.717Z,50.7
2023-02-25T04:55:55.822Z,62.6
2023-02-25T04:57:12.928Z,57
2023-02-25T04:58:29.049Z,64.1
2023-02-25T04:59:46.154Z,52.2
2023-02-25T05:01:03.259Z,48.6
2023-02-25T05:02:20.365Z,57.3
2023-02-25T05:03:37.470Z,61.3
2023-02-25T05:04:54.575Z,49.4
2023-02-25T05:06:11.681Z,53.3
2023-02-25T05:07:27.807Z,59.7
2023-02-25T05:08:43.929Z,49.9
2023-02-25T05:10:01.034Z,54.1
2023-02-25T05:11:18.139Z,48.9
2023-02-25T05:12:34.265Z,63.3
2023-02-25T05:13:50.387Z,49.9
2023-02-25T05:15:07.492Z,54.3
2023-02-25T05:16:24.597Z,67.9
2023-02-25T05:17:41.702Z,62.8
2023-02-25T05:18:58.808Z,64.9
2023-02-25T05:20:15.913Z,51.5
2023-02-25T05:21:33.019Z,56.5
2023-02-25T05:22:50.124Z,65.4
2023-02-25T05:24:07.229Z,50.4
2023-02-25T05:25:24.334Z,54.1
2023-02-25T05:26:41.439Z,64.9
2023-02-25T05:27:58.545Z,61.5
2023-02-25T05:29:15.650Z,58.6
2023-02-25T05:30:31.771Z,60.2
2023-02-25T05:31:48.876Z,69.7
2023-02-25T05:33:05.982Z,60.1
2023-02-25T05:34:23.087Z,49.9
2023-02-25T05:35:40.192Z,57.3
2023-02-25T05:36:57.298Z,54.7
2023-02-25T05:38:14.403Z,64.2
2023-02-25T05:39:31.508Z,64.9
2023-02-25T05:40:48.613Z,48.6
2023-02-25T05:42:05.718Z,53.9
2023-02-25T05:43:22.824Z,48.9
2023-02-25T05:44:39.929Z,51.8
2023-02-25T05:45:56.056Z,59.7
2023-02-25T05:47:12.177Z,55.1
2023-02-25T05:48:29.282Z,60.9
2023-02-25T05:49:45.408Z,61.8
2023-02-25T05:51:01.530Z,70
2023-02-25T05:52:18.635Z,60.9
2023-02-25T05:53:35.740Z,49.6
2023-02-25T05:54:52.845Z,50.7
2023-02-25T05:56:09.950Z,54.3
2023-02-25T05:57:27.055Z,62
2023-02-25T05:58:44.160Z,60.4
2023-02-25T06:00:01.265Z,82.6
2023-02-25T06:01:18.370Z,62.6
2023-02-25T06:02:35.475Z,82.5
2023-02-25T06:03:52.580Z,58.3
2023-02-25T06:05:09.685Z,58.8
2023-02-25T06:06:26.790Z,51.5
2023-02-25T06:07:42.911Z,59.2
2023-02-25T06:09:00.016Z,57.2
2023-02-25T06:10:17.122Z,60.2
2023-02-25T06:11:34.227Z,65.9
2023-02-25T06:12:51.332Z,52
2023-02-25T06:14:08.437Z,51.5
2023-02-25T06:15:25.542Z,56.2
2023-02-25T06:16:41.668Z,64.4
2023-02-25T06:17:57.789Z,56.5
2023-02-25T06:19:14.894Z,51.5
2023-02-25T06:20:31.020Z,54.9
2023-02-25T06:21:47.141Z,66.5
2023-02-25T06:23:04.246Z,60.4
2023-02-25T06:24:21.351Z,58
2023-02-25T06:25:38.457Z,52.8
2023-02-25T06:26:55.562Z,52.5
2023-02-25T06:28:12.666Z,59.9
2023-02-25T06:29:29.772Z,53.3
2023-02-25T06:30:46.876Z,55.5
2023-02-25T06:32:03.981Z,51.5
2023-02-25T06:33:21.087Z,67.3
2023-02-25T06:34:38.192Z,52
2023-02-25T06:35:55.298Z,58.4
2023-02-25T06:37:12.403Z,60.4
2023-02-25T06:38:28.524Z,59.1
2023-02-25T06:39:45.629Z,66.8
2023-02-25T06:41:02.734Z,63.8
2023-02-25T06:42:19.839Z,67.6
2023-02-25T06:43:36.944Z,60.2
2023-02-25T06:44:54.049Z,62.6
2023-02-25T06:46:11.154Z,63.8
2023-02-25T06:47:27.280Z,56
2023-02-25T06:48:43.401Z,62.1
2023-02-25T06:50:00.507Z,58.9
2023-02-25T06:51:17.612Z,69.6
2023-02-25T06:52:34.717Z,58.3
2023-02-25T06:53:51.823Z,55.1
2023-02-25T06:55:08.928Z,65.9
2023-02-25T06:56:26.033Z,58.6
2023-02-25T06:57:43.138Z,66.2
2023-02-25T06:59:00.243Z,68.1
2023-02-25T07:00:17.348Z,75.7
2023-02-25T07:01:34.453Z,65
2023-02-25T07:02:51.559Z,64.2
2023-02-25T07:05:25.769Z,63.8
2023-02-25T07:06:41.890Z,62
2023-02-25T07:07:58.995Z,65.5
2023-02-25T07:09:16.100Z,67.5
2023-02-25T07:10:33.205Z,51.8
2023-02-25T07:11:50.311Z,64.1
2023-02-25T07:13:07.416Z,61.5
2023-02-25T07:14:24.521Z,67.9
2023-02-25T07:15:40.648Z,67.8
2023-02-25T07:16:56.769Z,56
2023-02-25T07:18:12.895Z,65.7
2023-02-25T07:19:29.016Z,53.8
2023-02-25T07:20:46.121Z,62
2023-02-25T07:22:03.226Z,56.8
2023-02-25T07:23:20.331Z,68.1
2023-02-25T07:24:37.436Z,57.6
2023-02-25T07:25:54.541Z,69.9
2023-02-25T07:27:11.646Z,65.7
2023-02-25T07:28:28.751Z,62.6
2023-02-25T07:29:45.856Z,66.2
2023-02-25T07:31:02.961Z,62.6
2023-02-25T07:32:20.066Z,63
2023-02-25T07:33:37.171Z,67.6
2023-02-25T07:34:54.276Z,66.2
2023-02-25T07:36:10.397Z,67.3
2023-02-25T07:37:27.501Z,67
2023-02-25T07:38:44.607Z,69.1
2023-02-25T07:40:01.711Z,64.4
2023-02-25T07:41:18.816Z,62.6
2023-02-25T07:42:35.921Z,70.4
2023-02-25T07:43:53.026Z,68.4
2023-02-25T07:45:09.152Z,66.8
2023-02-25T07:46:25.273Z,53.3
2023-02-25T07:47:41.399Z,68.6
2023-02-25T07:48:57.520Z,70.8
2023-02-25T07:50:14.625Z,65.4
2023-02-25T07:51:31.730Z,63.9
2023-02-25T07:52:48.835Z,68.6
2023-02-25T07:54:05.940Z,64.9
2023-02-25T07:55:23.045Z,59.7
2023-02-25T07:56:40.150Z,60.2
2023-02-25T07:57:57.254Z,70.7
2023-02-25T07:59:14.359Z,63.9
2023-02-25T08:00:31.464Z,65.9
2023-02-25T08:01:48.569Z,64.1
2023-02-25T08:03:05.674Z,67.5
2023-02-25T08:04:22.779Z,61.3
2023-02-25T08:05:38.900Z,59.7
2023-02-25T08:06:56.005Z,58.1
2023-02-25T08:08:13.110Z,60.9
2023-02-25T08:09:29.231Z,61.3
2023-02-25T08:10:46.336Z,61.5
2023-02-25T08:12:03.441Z,66.2
2023-02-25T08:13:20.546Z,65.2
2023-02-25T08:14:36.672Z,68.4
2023-02-25T08:15:52.793Z,60.2
2023-02-25T08:17:08.920Z,59.4
2023-02-25T08:18:25.041Z,60.5
2023-02-25T08:19:42.145Z,63.3
2023-02-25T08:20:59.250Z,67
2023-02-25T08:22:16.356Z,64.9
2023-02-25T08:23:33.461Z,65.7
2023-02-25T08:24:50.566Z,65.7
2023-02-25T08:26:07.670Z,60.7
2023-02-25T08:27:24.775Z,69.2
2023-02-25T08:28:41.880Z,66
2023-02-25T08:29:58.985Z,56.2
2023-02-25T08:31:16.090Z,68.4
2023-02-25T08:32:33.195Z,65.5
2023-02-25T08:33:50.300Z,60.5
2023-02-25T08:35:06.421Z,64.1
2023-02-25T08:36:23.526Z,69.4
2023-02-25T08:37:40.631Z,61
2023-02-25T08:38:57.736Z,61.7
2023-02-25T08:40:14.841Z,68.4
2023-02-25T08:41:31.946Z,67.3
2023-02-25T08:42:49.051Z,72.3
2023-02-25T08:44:05.177Z,66.3
2023-02-25T08:45:21.298Z,66.3
2023-02-25T08:46:38.404Z,68.4
2023-02-25T08:47:54.530Z,65.4
2023-02-25T08:49:10.651Z,58.1
2023-02-25T08:50:27.757Z,67
2023-02-25T08:51:44.862Z,62.8
2023-02-25T08:53:01.967Z,61
2023-02-25T08:54:19.071Z,68.6
2023-02-25T08:55:36.176Z,65.4
2023-02-25T08:56:53.281Z,68.9
2023-02-25T08:58:10.386Z,65
2023-02-25T08:59:27.492Z,63.4
2023-02-25T09:00:44.596Z,63.9
2023-02-25T09:02:01.701Z,67.8
2023-02-25T09:03:18.806Z,69.4
2023-02-25T09:04:35.911Z,59.2
2023-02-25T09:05:52.032Z,67.9
2023-02-25T09:07:09.138Z,63.6
2023-02-25T09:08:26.243Z,70.4
2023-02-25T09:09:43.348Z,66.7
2023-02-25T09:11:00.455Z,65.4
2023-02-25T09:12:17.560Z,69.7
2023-02-25T09:13:34.665Z,68.9
2023-02-25T09:14:50.792Z,69.9
2023-02-25T09:16:06.913Z,86.2
2023-02-25T09:17:23.040Z,81.6
2023-02-25T09:18:39.161Z,88.7
2023-02-25T09:19:56.266Z,81.6
2023-02-25T09:21:13.371Z,82.9
2023-02-25T09:22:30.477Z,81.5
2023-02-25T09:23:47.582Z,67.5
2023-02-25T09:25:04.687Z,67.9
2023-02-25T09:26:21.793Z,70.5
2023-02-25T09:27:38.898Z,58.9
2023-02-25T09:28:56.003Z,69.2
2023-02-25T09:30:13.108Z,67.5
2023-02-25T09:31:30.214Z,68.1
2023-02-25T09:32:47.319Z,69.7
2023-02-25T09:34:04.424Z,68.4
2023-02-25T09:35:20.546Z,64.9
2023-02-25T09:36:37.651Z,61.8
2023-02-25T09:37:54.757Z,61.2
2023-02-25T09:39:11.862Z,65.4
2023-02-25T09:40:28.967Z,64.9
2023-02-25T09:41:46.072Z,72.1
2023-02-25T09:43:03.177Z,67
2023-02-25T09:44:19.303Z,67.1
2023-02-25T09:45:35.424Z,62.3
2023-02-25T09:46:52.529Z,66.2
2023-02-25T09:48:09.634Z,67.9
2023-02-25T09:49:25.761Z,69.7
2023-02-25T09:50:41.882Z,69.1
2023-02-25T09:51:58.987Z,66.2
2023-02-25T09:53:16.092Z,66.5
2023-02-25T09:54:33.197Z,63.4
2023-02-25T09:55:50.302Z,69.1
2023-02-25T09:57:07.407Z,68.8
2023-02-25T09:58:24.512Z,63.4
2023-02-25T09:59:41.618Z,63.3
2023-02-25T10:00:58.722Z,68.1
2023-02-25T10:02:15.827Z,60.7
2023-02-25T10:03:32.933Z,68.1
2023-02-25T10:04:50.037Z,64.9
2023-02-25T10:06:07.142Z,64.9
2023-02-25T10:07:23.263Z,70.5
2023-02-25T10:08:40.368Z,67.8
2023-02-25T10:09:57.473Z,63
2023-02-25T10:11:14.578Z,64.2
2023-02-25T10:12:31.682Z,68.1
2023-02-25T10:13:48.787Z,63.8
2023-02-25T10:15:05.892Z,67.5
2023-02-25T10:16:22.997Z,60.2
2023-02-25T10:17:40.102Z,61.2
2023-02-25T10:18:57.207Z,66.2
2023-02-25T10:20:14.312Z,69.2
2023-02-25T10:21:30.438Z,64.9
2023-02-25T10:22:46.559Z,66.2
2023-02-25T10:24:02.685Z,66
2023-02-25T10:25:18.806Z,62.1
2023-02-25T10:26:35.911Z,63.8
2023-02-25T10:27:53.015Z,60.4
2023-02-25T10:29:10.120Z,60.9
2023-02-25T10:30:27.225Z,65
2023-02-25T10:31:44.330Z,62.5
2023-02-25T10:33:01.435Z,60.9
2023-02-25T10:34:18.540Z,66.3
2023-02-25T10:35:35.644Z,63.1
2023-02-25T10:36:52.749Z,68.8
2023-02-25T10:38:09.852Z,73.1
2023-02-25T10:39:26.957Z,64.1
2023-02-25T10:40:44.062Z,63.4
2023-02-25T10:42:00.183Z,65.5
2023-02-25T10:43:17.288Z,66.2
2023-02-25T10:44:34.393Z,63.9
2023-02-25T10:45:51.498Z,59.9
2023-02-25T10:47:08.603Z,66.5
2023-02-25T10:48:25.708Z,67.6
2023-02-25T10:49:42.813Z,68.9
2023-02-25T10:50:58.939Z,64.1
2023-02-25T10:52:15.060Z,67
2023-02-25T10:53:31.186Z,61.2
2023-02-25T10:54:47.307Z,67
2023-02-25T10:56:04.412Z,62.3
2023-02-25T10:57:21.517Z,60.1
2023-02-25T10:58:38.622Z,71
2023-02-25T10:59:55.726Z,62
2023-02-25T11:01:12.831Z,66.3
2023-02-25T11:02:29.935Z,73.9
2023-02-25T11:03:47.040Z,78.3
2023-02-25T11:05:04.145Z,61.3
2023-02-25T11:06:21.250Z,66
2023-02-25T11:08:55.461Z,66
2023-02-25T11:10:12.566Z,63.9
2023-02-25T11:11:28.687Z,59.9
2023-02-25T11:12:45.792Z,66.3
2023-02-25T11:14:02.896Z,67.9
2023-02-25T11:15:20.001Z,69.2
2023-02-25T11:16:37.106Z,68.3
2023-02-25T11:17:54.211Z,60.1
2023-02-25T11:19:11.316Z,61.8
2023-02-25T11:20:28.421Z,64.4
2023-02-25T11:21:44.547Z,64.7
2023-02-25T11:23:00.668Z,62.8
2023-02-25T11:24:16.794Z,65.2
2023-02-25T11:25:32.915Z,62.5
2023-02-25T11:26:50.020Z,67.3
2023-02-25T11:28:07.125Z,59.9
2023-02-25T11:29:24.230Z,68.4
2023-02-25T11:30:41.335Z,63.6
2023-02-25T11:31:58.440Z,62.1
2023-02-25T11:33:15.545Z,65.5
2023-02-25T11:34:32.650Z,63.4
2023-02-25T11:35:49.755Z,63.4
2023-02-25T11:37:06.860Z,64.6
2023-02-25T11:38:23.965Z,60.4
2023-02-25T11:39:41.068Z,64.6
2023-02-25T11:40:58.172Z,59.9
2023-02-25T11:42:14.293Z,67
2023-02-25T11:43:31.398Z,62.5
2023-02-25T11:44:48.503Z,63.6
2023-02-25T11:46:05.609Z,59.9
2023-02-25T11:47:22.713Z,68.1
2023-02-25T11:48:39.818Z,66.2
2023-02-25T11:49:56.923Z,64.6
2023-02-25T11:51:13.049Z,58.9
2023-02-25T11:52:29.170Z,61.2
2023-02-25T11:53:45.297Z,67.3
2023-02-25T11:55:01.418Z,68.9
2023-02-25T11:56:18.522Z,61.2
2023-02-25T11:57:35.627Z,69.1
2023-02-25T11:58:52.732Z,64.7
2023-02-25T12:00:09.837Z,72.5
2023-02-25T12:01:26.942Z,62.8
2023-02-25T12:02:44.046Z,59.4
2023-02-25T12:04:01.151Z,67.9
2023-02-25T12:05:18.256Z,62.6
2023-02-25T12:06:35.361Z,64.1
2023-02-25T12:07:52.465Z,59.7
2023-02-25T12:09:09.570Z,60.9
2023-02-25T12:10:26.675Z,65.2
2023-02-25T12:11:42.796Z,65.9
2023-02-25T12:12:59.901Z,69.6
2023-02-25T12:14:17.007Z,67.3
2023-02-25T12:15:34.112Z,62.3
2023-02-25T12:16:51.216Z,62.1
2023-02-25T12:18:08.321Z,60.7
2023-02-25T12:19:25.426Z,68.4
2023-02-25T12:20:42.531Z,63.3
2023-02-25T12:21:59.636Z,65.4
2023-02-25T12:23:16.741Z,67.9
2023-02-25T12:24:33.845Z,66.5
2023-02-25T12:25:50.950Z,66.8
2023-02-25T12:27:07.071Z,65.2
2023-02-25T12:28:24.176Z,62.6
2023-02-25T12:29:41.281Z,62
2023-02-25T12:30:58.386Z,70.8
2023-02-25T12:32:15.490Z,64.7
2023-02-25T12:33:32.595Z,67.1
2023-02-25T12:34:49.700Z,67.1
2023-02-25T12:36:06.805Z,60.7
2023-02-25T12:37:23.910Z,64.9
2023-02-25T12:38:41.015Z,65
2023-02-25T12:39:58.119Z,65
2023-02-25T12:41:15.224Z,62.6
2023-02-25T12:42:32.329Z,66.3
2023-02-25T12:43:48.450Z,67.9
2023-02-25T12:45:05.555Z,65.2
2023-02-25T12:46:22.660Z,61.7
2023-02-25T12:47:39.765Z,58.3
2023-02-25T12:48:56.870Z,68.4
2023-02-25T12:50:13.974Z,61.2
2023-02-25T12:51:31.079Z,66
2023-02-25T12:52:48.184Z,60.4
2023-02-25T12:54:05.289Z,58.3
2023-02-25T12:55:22.394Z,65.9
2023-02-25T12:56:39.499Z,58.9
2023-02-25T12:57:56.604Z,68.8
2023-02-25T12:59:13.708Z,67.9
2023-02-25T13:00:29.829Z,67.1
2023-02-25T13:01:46.934Z,66.3
2023-02-25T13:03:04.039Z,64.6
2023-02-25T13:04:21.144Z,59.7
2023-02-25T13:05:38.249Z,60.2
2023-02-25T13:06:55.353Z,66
2023-02-25T13:08:12.459Z,58.6
2023-02-25T13:09:29.563Z,64.4
2023-02-25T13:10:46.668Z,65.7
2023-02-25T13:12:03.773Z,62.3
2023-02-25T13:13:19.899Z,62.6
2023-02-25T13:14:36.020Z,62.1
2023-02-25T13:15:53.125Z,68.1
2023-02-25T13:17:09.251Z,66.5
2023-02-25T13:18:25.372Z,61.5
2023-02-25T13:19:42.477Z,66.7
2023-02-25T13:20:59.582Z,69.1
2023-02-25T13:22:16.686Z,70.7
2023-02-25T13:23:33.792Z,65.2
2023-02-25T13:24:50.896Z,65.9
2023-02-25T13:26:08.001Z,67.1
2023-02-25T13:27:25.106Z,62
2023-02-25T13:28:42.211Z,57.5
2023-02-25T13:29:59.315Z,60.5
2023-02-25T13:31:16.420Z,61.3
2023-02-25T13:32:33.525Z,58.9
2023-02-25T13:33:50.630Z,66.8
2023-02-25T13:35:06.751Z,63.9
2023-02-25T13:36:23.856Z,57
2023-02-25T13:37:40.961Z,63
2023-02-25T13:38:58.065Z,64.1
2023-02-25T13:40:15.170Z,64.2
2023-02-25T13:41:32.275Z,66.5
2023-02-25T13:42:49.378Z,63.4
2023-02-25T13:44:05.504Z,65.7
2023-02-25T13:45:21.625Z,65.5
2023-02-25T13:46:37.751Z,65.4
2023-02-25T13:47:53.872Z,63.9
2023-02-25T13:49:10.977Z,63.8
2023-02-25T13:50:28.082Z,63.8
2023-02-25T13:51:45.187Z,66.3
2023-02-25T13:53:02.292Z,63
2023-02-25T13:54:19.397Z,62.3
2023-02-25T13:55:36.501Z,63.8
2023-02-25T13:56:53.606Z,67.3
2023-02-25T13:58:10.711Z,59.1
2023-02-25T13:59:27.816Z,64.6
2023-02-25T14:00:44.921Z,67.3
2023-02-25T14:02:02.026Z,62
2023-02-25T14:03:19.131Z,70.4
2023-02-25T14:04:35.250Z,67.5
2023-02-25T14:05:52.354Z,63.8
2023-02-25T14:07:09.459Z,58.4
2023-02-25T14:08:26.564Z,65.5
2023-02-25T14:09:43.669Z,58.3
2023-02-25T14:11:00.774Z,64.9
2023-02-25T14:12:17.879Z,63.6
2023-02-25T14:13:34.005Z,66.2
2023-02-25T14:14:50.126Z,62
2023-02-25T14:16:07.231Z,63.9
2023-02-25T14:17:23.357Z,61.2
2023-02-25T14:18:39.478Z,59.4
2023-02-25T14:19:56.583Z,60.2
2023-02-25T14:21:13.688Z,64.6
2023-02-25T14:22:30.793Z,58
2023-02-25T14:23:47.897Z,65.9
2023-02-25T14:25:05.002Z,56.7
2023-02-25T14:26:22.107Z,67.9
2023-02-25T14:28:56.317Z,60.1
2023-02-25T14:30:13.422Z,64.9
2023-02-25T14:31:30.527Z,64.7
2023-02-25T14:32:47.632Z,64.7
2023-02-25T14:34:04.737Z,62.1
2023-02-25T14:35:20.858Z,56.7
2023-02-25T14:36:37.963Z,56.8
2023-02-25T14:37:55.068Z,63.8
2023-02-25T14:39:12.173Z,64.4
2023-02-25T14:40:29.278Z,64.6
2023-02-25T14:41:46.383Z,64.4
2023-02-25T14:43:03.489Z,66.3
2023-02-25T14:44:20.594Z,63
2023-02-25T14:45:36.720Z,67.5
2023-02-25T14:46:52.841Z,63.9
2023-02-25T14:48:09.946Z,65
2023-02-25T14:49:27.051Z,61
2023-02-25T14:50:43.177Z,63.8
2023-02-25T14:51:59.299Z,66.3
2023-02-25T14:53:16.404Z,67.5
2023-02-25T14:54:33.509Z,65.2
2023-02-25T14:55:50.614Z,59.9
2023-02-25T14:57:07.719Z,61.5
2023-02-25T14:58:24.824Z,60.9
2023-02-25T14:59:41.929Z,66.8
2023-02-25T15:00:59.033Z,66.5
2023-02-25T15:02:16.138Z,62.6
2023-02-25T15:03:33.243Z,59.9
2023-02-25T15:04:50.349Z,60.5
2023-02-25T15:06:07.454Z,60.4
2023-02-25T15:07:24.559Z,58
2023-02-25T15:08:40.680Z,63.8
2023-02-25T15:09:57.785Z,60.1
2023-02-25T15:11:14.890Z,67
2023-02-25T15:12:31.995Z,65.2
2023-02-25T15:13:49.100Z,61
2023-02-25T15:15:06.205Z,64.7
2023-02-25T15:16:23.310Z,63.4
2023-02-25T15:17:39.436Z,64.9
2023-02-25T15:18:55.557Z,56.7
2023-02-25T15:20:11.684Z,71
2023-02-25T15:21:27.805Z,62.6
2023-02-25T15:22:44.910Z,65.5
2023-02-25T15:24:02.014Z,65.5
2023-02-25T15:25:19.119Z,59.9
2023-02-25T15:26:36.224Z,61.2
2023-02-25T15:27:53.329Z,61.3
2023-02-25T15:29:10.434Z,60.2
2023-02-25T15:30:27.539Z,69.7
2023-02-25T15:31:44.644Z,54.1
2023-02-25T15:33:01.749Z,61.8
2023-02-25T15:34:18.854Z,56.3
2023-02-25T15:35:35.959Z,63.9
2023-02-25T15:36:53.064Z,67.9
2023-02-25T15:38:09.185Z,66.7
2023-02-25T15:39:26.290Z,58.1
2023-02-25T15:40:43.395Z,64.2
2023-02-25T15:42:00.500Z,66.5
2023-02-25T15:43:17.606Z,63.3
2023-02-25T15:44:34.712Z,62.1
2023-02-25T15:45:51.817Z,64.6
2023-02-25T15:47:08.921Z,64.7
2023-02-25T15:48:26.026Z,61.3
2023-02-25T15:49:43.132Z,64.2
2023-02-25T15:51:00.237Z,65
2023-02-25T15:52:17.342Z,58.9
2023-02-25T15:53:34.448Z,59.2
2023-02-25T15:54:50.569Z,61.7
2023-02-25T15:56:07.674Z,63.6
2023-02-25T15:57:24.779Z,60.5
2023-02-25T15:58:41.884Z,63.6
2023-02-25T15:59:58.988Z,68.1
2023-02-25T16:01:16.093Z,62.1
2023-02-25T16:02:33.198Z,66.7
2023-02-25T16:03:50.303Z,63.9
2023-02-25T16:05:07.409Z,64.6
2023-02-25T16:06:24.514Z,61.7
2023-02-25T16:07:41.619Z,61.2
2023-02-25T16:08:57.745Z,69.1
2023-02-25T16:10:13.866Z,67
2023-02-25T16:11:30.971Z,64.1
2023-02-25T16:12:47.097Z,64.6
2023-02-25T16:14:03.219Z,64.9
2023-02-25T16:15:20.324Z,67.1
2023-02-25T16:16:37.428Z,61
2023-02-25T16:17:54.533Z,62.1
2023-02-25T16:19:11.638Z,64.7
2023-02-25T16:20:28.744Z,68.1
2023-02-25T16:21:45.849Z,66.8
2023-02-25T16:23:02.954Z,63.1
2023-02-25T16:24:20.059Z,69.7
2023-02-25T16:25:37.164Z,65.4
2023-02-25T16:26:54.270Z,64.4
2023-02-25T16:28:11.375Z,64.1
2023-02-25T16:29:28.480Z,64.7
2023-02-25T16:30:44.601Z,64.6
2023-02-25T16:32:01.707Z,56.7
2023-02-25T16:33:18.813Z,62.3
2023-02-25T16:34:35.919Z,55.5
2023-02-25T16:35:53.024Z,60.2
2023-02-25T16:37:10.129Z,82.3
2023-02-25T16:38:27.234Z,89.1
2023-02-25T16:39:43.361Z,85.7
2023-02-25T16:40:59.482Z,88.1
2023-02-25T16:42:16.588Z,64.6
2023-02-25T16:43:33.694Z,64.7
2023-02-25T16:44:49.831Z,63.3
2023-02-25T16:46:05.952Z,81.8
2023-02-25T16:47:23.058Z,83.3
2023-02-25T16:48:40.163Z,84.4
2023-02-25T16:49:57.269Z,82.1
2023-02-25T16:51:14.374Z,75.5
2023-02-25T16:52:31.479Z,62.6
2023-02-25T16:53:48.585Z,61.2
2023-02-25T16:55:05.690Z,65.7
2023-02-25T16:56:22.796Z,63.4
2023-02-25T16:57:39.902Z,64.1
2023-02-25T16:58:57.008Z,56.7
2023-02-25T17:00:14.113Z,67.6
2023-02-25T17:01:31.218Z,61.3
2023-02-25T17:02:47.340Z,64.1
2023-02-25T17:04:04.445Z,63.8
2023-02-25T17:05:21.551Z,65.7
2023-02-25T17:06:38.656Z,59.9
2023-02-25T17:07:55.762Z,67.1
2023-02-25T17:09:12.868Z,56.8
2023-02-25T17:10:29.973Z,64.6
2023-02-25T17:11:46.100Z,62.6
2023-02-25T17:13:02.222Z,64.4
2023-02-25T17:14:19.327Z,57.6